Odate Noshiro, Japan

8:03 PM JST on July 13, 2014 (GMT +0900)
Aomori (RJSA) Elev 659 ft | 40.73 °N, 140.69 °E | Change Station

Current weather conditions updated 35 minutes ago

Patches of Fog
Patches Fog Light Rain Mist
68 °F
Feels Like 68 °F
N
4
Wind Variable Wind from NNE

Tomorrow is forecast to be nearly the same temperature as today.

Today
High -- | Low -- °F
--% Chance of Precip.
Yesterday
High -- | Low -- °F
Precip. -- in
4:19 AM 7:08 PM
Full, 99% visible
Pressure 29.65 in
Visibility 2.8 miles
Clouds Few 100 ft
Scattered Clouds 4000 ft
Mostly Cloudy 5000 ft
Dew Point 68 °F
Humidity 100%
Rainfall 0.00 in
Snow Depth Not available.
UV 0 out of 12
Pollen Not available.
Air Quality Not available.
Flu Activity Not available.
SPECI RJSA 131028Z 02003KT 4500 BCFG -RA BR FEW001 SCT040 BKN050 20/20 Q1004 RMK 1ST001 3SC040 6SC050 A2965

More Conditions Fewer Conditions

Pressure 29.65 in
Visibility 2.8 miles
Clouds Few 100 ft
Scattered Clouds 4000 ft
Mostly Cloudy 5000 ft
Dew Point 68 °F
Humidity 100%
Rainfall 0.00 in
Snow Depth Not available.
UV 0 out of 12
Pollen Not available.
Air Quality Not available.
Flu Activity Not available.
SPECI RJSA 131028Z 02003KT 4500 BCFG -RA BR FEW001 SCT040 BKN050 20/20 Q1004 RMK 1ST001 3SC040 6SC050 A2965

More Conditions Fewer Conditions

10-Day Weather Forecast

Almanac

Astronomy

Jul. 13, 2014 Rise Set
Actual Time 4:19 AM JST 7:08 PM JST
Civil Twilight 3:47 AM JST 7:40 PM JST
Nautical Twilight 3:07 AM JST 8:20 PM JST
Astronomical Twilight 2:20 AM JST 9:06 PM JST
Moon 7:27 PM JST 5:04 AM JST
Length of Visible Light 15h 52m
Length of Day
14h 48m
Tomorrow will be 1m 15s shorter.
Full, 99% of the Moon is Illuminated
Today
Full
Jul 18
Last Quarter
Jul 26
New
Aug 3
First Quarter
Aug 10
Full

Yesterday's Extremes

Country Highs Country Lows

Community

WunderPhotos

Upload Photos

1,733,151 photos uploaded!

Nearby

Snow Depth

Not available.

Earthquake Activity

City Distance Mag. Time & Date
No recent earthquake activity has been reported nearby.
Minimum magnitude displayed is 2.5.

Coastal Water Temperatures

Place Temperature
No Stations Reporting

Nearby Weather Stations

There are no personal weather stations in this area.